Terminal Aerodrome Forecast
Issued by NWS

Home | Current Version | Previous Version | Text Only | Print | Product List | Glossary On
Versions: 1 2 3 4 5 6 7 8 9 10 11 12 13 14 15 16 17 18 19 20 21 22 23 24 25 26 27 28 29 30 31 32 33 34 35 36 37 38 39 40 41 42 43 44 45 46 47 48 49 50
000
FTUS45 KGJT 191511 AAA
TAFGUC
TAF AMD
KGUC 191511Z 1915/2012 00000KT P6SM BKN016
      TEMPO 1916/1918 SCT016 SCT250
     FM191800 VRB03KT P6SM FEW016 SCT250
     FM192100 25006KT P6SM FEW100 SCT200=

USA.gov is the U.S. government's official web portal to all federal, state and local government web resources and services.